Time,TemperatureF,DewpointF,PressureIn,WindDirection,WindDirectionDegrees,WindSpeedMPH,WindSpeedGustMPH,Humidity,HourlyPrecipIn,Conditions,Clouds,dailyrainin,SoftwareType,DateUTC
2013-01-20 00:02:00,42.0,21.0,30.19,ENE,61,0.0,0.0,42,0.00,,,0.00,,2013-01-20 06:02:00,
2013-01-20 00:12:00,42.0,21.0,30.19,ENE,61,0.0,0.0,42,0.00,,,0.00,,2013-01-20 06:12:00,
2013-01-20 00:22:00,43.0,22.0,30.19,ENE,61,0.0,0.0,42,0.00,,,0.00,,2013-01-20 06:22:00,
2013-01-20 00:33:00,43.0,22.0,30.19,ENE,61,0.0,0.0,42,0.00,,,0.00,,2013-01-20 06:33:00,
2013-01-20 00:43:00,43.0,22.0,30.19,ENE,61,0.0,0.0,42,0.00,,,0.00,,2013-01-20 06:43:00,
2013-01-20 00:53:00,43.0,22.0,30.22,ENE,61,0.0,0.0,43,0.00,,,0.00,,2013-01-20 06:53:00,
2013-01-20 01:02:00,43.0,22.0,30.22,ENE,61,0.0,0.0,43,0.00,,,0.00,,2013-01-20 07:02:00,
2013-01-20 01:12:00,43.0,22.0,30.22,ENE,61,0.0,0.0,43,0.00,,,0.00,,2013-01-20 07:12:00,
2013-01-20 01:22:00,41.0,22.0,30.20,ENE,61,0.0,0.0,47,0.00,,,0.00,,2013-01-20 07:22:00,
2013-01-20 01:32:00,41.0,22.0,30.20,ENE,61,0.0,0.0,47,0.00,,,0.00,,2013-01-20 07:32:00,
2013-01-20 01:42:00,41.0,22.0,30.20,ENE,61,0.0,0.0,47,0.00,,,0.00,,2013-01-20 07:42:00,
2013-01-20 01:52:00,40.0,21.0,30.19,ENE,61,0.0,0.0,46,0.00,,,0.00,,2013-01-20 07:52:00,
2013-01-20 02:02:00,40.0,21.0,30.19,ENE,61,0.0,0.0,46,0.00,,,0.00,,2013-01-20 08:02:00,
2013-01-20 02:12:00,40.0,21.0,30.19,ENE,61,0.0,0.0,46,0.00,,,0.00,,2013-01-20 08:12:00,
2013-01-20 02:22:00,40.0,21.0,30.19,ENE,61,0.0,0.0,47,0.00,,,0.00,,2013-01-20 08:22:00,
2013-01-20 02:32:00,40.0,21.0,30.19,ENE,61,0.0,0.0,47,0.00,,,0.00,,2013-01-20 08:32:00,
2013-01-20 02:42:00,40.0,21.0,30.19,ENE,61,0.0,0.0,47,0.00,,,0.00,,2013-01-20 08:42:00,
2013-01-20 02:52:00,40.0,22.0,30.19,ENE,61,0.0,0.0,48,0.00,,,0.00,,2013-01-20 08:52:00,
2013-01-20 03:01:00,39.0,20.0,30.19,ENE,61,0.0,0.0,47,0.00,,,0.00,,2013-01-20 09:01:00,
2013-01-20 03:02:00,40.0,22.0,30.19,ENE,61,0.0,0.0,48,0.00,,,0.00,,2013-01-20 09:02:00,
2013-01-20 03:12:00,40.0,22.0,30.19,ENE,61,0.0,0.0,48,0.00,,,0.00,,2013-01-20 09:12:00,
2013-01-20 03:22:00,39.0,20.0,30.19,ENE,61,0.0,0.0,47,0.00,,,0.00,,2013-01-20 09:22:00,
2013-01-20 03:33:00,39.0,20.0,30.19,ENE,61,0.0,0.0,47,0.00,,,0.00,,2013-01-20 09:33:00,
2013-01-20 03:42:00,39.0,20.0,30.19,ENE,61,0.0,0.0,47,0.00,,,0.00,,2013-01-20 09:42:00,
2013-01-20 03:53:00,39.0,20.0,30.19,ENE,61,0.0,0.0,47,0.00,,,0.00,,2013-01-20 09:53:00,
2013-01-20 04:23:00,38.0,20.0,30.19,ENE,61,0.0,0.0,47,0.00,,,0.00,,2013-01-20 10:23:00,
2013-01-20 04:33:00,38.0,20.0,30.19,ENE,61,0.0,0.0,47,0.00,,,0.00,,2013-01-20 10:33:00,
2013-01-20 04:42:00,38.0,20.0,30.19,ENE,61,0.0,0.0,47,0.00,,,0.00,,2013-01-20 10:42:00,
2013-01-20 04:52:00,38.0,20.0,30.17,ENE,61,0.0,0.0,47,0.00,,,0.00,,2013-01-20 10:52:00,
2013-01-20 05:02:00,38.0,20.0,30.17,ENE,61,0.0,0.0,47,0.00,,,0.00,,2013-01-20 11:02:00,
2013-01-20 05:12:00,38.0,20.0,30.17,ENE,61,0.0,0.0,47,0.00,,,0.00,,2013-01-20 11:12:00,
2013-01-20 05:22:00,38.0,20.0,30.16,ENE,61,0.0,0.0,47,0.00,,,0.00,,2013-01-20 11:22:00,
2013-01-20 05:32:00,38.0,20.0,30.16,ENE,61,0.0,0.0,47,0.00,,,0.00,,2013-01-20 11:32:00,
2013-01-20 05:43:00,38.0,20.0,30.16,ENE,61,0.0,0.0,47,0.00,,,0.00,,2013-01-20 11:43:00,
2013-01-20 05:53:00,37.0,19.0,30.16,ENE,61,0.0,0.0,48,0.00,,,0.00,,2013-01-20 11:53:00,
2013-01-20 06:03:00,37.0,19.0,30.16,ENE,61,0.0,0.0,48,0.00,,,0.00,,2013-01-20 12:03:00,
2013-01-20 06:12:00,37.0,19.0,30.16,ENE,61,0.0,0.0,48,0.00,,,0.00,,2013-01-20 12:12:00,
2013-01-20 06:23:00,38.0,20.0,30.15,ENE,61,0.0,0.0,47,0.00,,,0.00,,2013-01-20 12:23:00,
2013-01-20 06:33:00,38.0,20.0,30.15,ENE,61,0.0,0.0,47,0.00,,,0.00,,2013-01-20 12:33:00,
2013-01-20 06:43:00,38.0,20.0,30.15,ENE,61,0.0,0.0,47,0.00,,,0.00,,2013-01-20 12:43:00,
2013-01-20 06:53:00,38.0,20.0,30.15,ENE,61,0.0,0.0,48,0.00,,,0.00,,2013-01-20 12:53:00,
2013-01-20 07:02:00,38.0,20.0,30.15,ENE,61,0.0,0.0,48,0.00,,,0.00,,2013-01-20 13:02:00,
2013-01-20 07:12:00,38.0,20.0,30.15,ENE,61,0.0,0.0,48,0.00,,,0.00,,2013-01-20 13:12:00,
2013-01-20 07:23:00,38.0,19.0,30.15,ENE,61,0.0,0.0,45,0.00,,,0.00,,2013-01-20 13:23:00,
2013-01-20 07:33:00,38.0,19.0,30.15,ENE,61,0.0,0.0,45,0.00,,,0.00,,2013-01-20 13:33:00,
2013-01-20 07:43:00,38.0,19.0,30.15,ENE,61,0.0,0.0,45,0.00,,,0.00,,2013-01-20 13:43:00,
2013-01-20 07:53:00,38.0,18.0,30.16,ENE,61,0.0,0.0,44,0.00,,,0.00,,2013-01-20 13:53:00,
2013-01-20 08:02:00,38.0,18.0,30.16,ENE,61,0.0,0.0,44,0.00,,,0.00,,2013-01-20 14:02:00,
2013-01-20 08:12:00,38.0,18.0,30.16,ENE,61,0.0,0.0,44,0.00,,,0.00,,2013-01-20 14:12:00,
2013-01-20 08:22:00,38.0,19.0,30.17,ENE,61,0.0,0.0,45,0.00,,,0.00,,2013-01-20 14:22:00,
2013-01-20 08:30:00,38.0,20.0,30.18,ENE,61,0.0,0.0,47,0.00,,,0.00,,2013-01-20 14:30:00,
2013-01-20 08:33:00,38.0,19.0,30.17,ENE,61,0.0,0.0,45,0.00,,,0.00,,2013-01-20 14:33:00,
2013-01-20 08:43:00,38.0,19.0,30.17,ENE,61,0.0,0.0,45,0.00,,,0.00,,2013-01-20 14:43:00,
2013-01-20 08:53:00,38.0,20.0,30.18,ENE,61,0.0,0.0,47,0.00,,,0.00,,2013-01-20 14:53:00,
2013-01-20 09:03:00,38.0,20.0,30.18,ENE,61,0.0,0.0,47,0.00,,,0.00,,2013-01-20 15:03:00,
2013-01-20 09:12:00,38.0,20.0,30.18,ENE,61,0.0,0.0,47,0.00,,,0.00,,2013-01-20 15:12:00,
2013-01-20 09:23:00,38.0,20.0,30.18,ENE,61,0.0,0.0,47,0.00,,,0.00,,2013-01-20 15:23:00,
2013-01-20 09:53:00,44.0,22.0,30.17,ESE,120,0.0,0.0,41,0.00,,,0.00,,2013-01-20 15:53:00,
2013-01-20 10:03:00,44.0,22.0,30.17,ESE,120,0.0,0.0,41,0.00,,,0.00,,2013-01-20 16:03:00,
2013-01-20 10:12:00,44.0,22.0,30.17,ESE,120,0.0,0.0,41,0.00,,,0.00,,2013-01-20 16:12:00,
2013-01-20 10:23:00,50.0,25.0,30.19,ESE,120,0.0,0.0,37,0.00,,,0.00,,2013-01-20 16:23:00,
2013-01-20 10:33:00,50.0,25.0,30.19,ESE,120,0.0,0.0,37,0.00,,,0.00,,2013-01-20 16:33:00,
2013-01-20 10:43:00,50.0,25.0,30.19,ESE,120,0.0,0.0,37,0.00,,,0.00,,2013-01-20 16:43:00,
2013-01-20 10:53:00,56.0,23.0,30.20,SE,131,0.0,0.0,28,0.00,,,0.00,,2013-01-20 16:53:00,
2013-01-20 11:03:00,56.0,23.0,30.20,SE,131,0.0,0.0,28,0.00,,,0.00,,2013-01-20 17:03:00,
2013-01-20 11:12:00,56.0,23.0,30.20,SE,131,0.0,0.0,28,0.00,,,0.00,,2013-01-20 17:12:00,
2013-01-20 11:22:00,60.0,20.0,30.20,South,188,0.0,0.0,21,0.00,,,0.00,,2013-01-20 17:22:00,
2013-01-20 11:33:00,60.0,20.0,30.20,South,188,0.0,0.0,21,0.00,,,0.00,,2013-01-20 17:33:00,
2013-01-20 11:43:00,60.0,20.0,30.20,South,188,0.0,0.0,21,0.00,,,0.00,,2013-01-20 17:43:00,
2013-01-20 11:53:00,61.0,21.0,30.18,WNW,299,1.0,5.0,21,0.00,,,0.00,,2013-01-20 17:53:00,
2013-01-20 12:03:00,61.0,21.0,30.18,WNW,299,1.0,5.0,21,0.00,,,0.00,,2013-01-20 18:03:00,
2013-01-20 12:13:00,64.0,21.0,30.18,SW,217,1.0,7.0,19,0.00,,,0.00,,2013-01-20 18:13:00,
2013-01-20 12:23:00,64.0,21.0,30.18,SW,217,1.0,7.0,19,0.00,,,0.00,,2013-01-20 18:23:00,
2013-01-20 12:33:00,64.0,21.0,30.18,SW,217,1.0,7.0,19,0.00,,,0.00,,2013-01-20 18:33:00,
2013-01-20 12:43:00,64.0,21.0,30.18,SW,217,1.0,7.0,19,0.00,,,0.00,,2013-01-20 18:43:00,
2013-01-20 12:53:00,65.0,22.0,30.16,SSW,209,2.0,11.0,19,0.00,,,0.00,,2013-01-20 18:53:00,
2013-01-20 13:02:00,65.0,22.0,30.16,SSW,209,2.0,11.0,19,0.00,,,0.00,,2013-01-20 19:02:00,
2013-01-20 13:12:00,65.0,22.0,30.16,SSW,209,2.0,11.0,19,0.00,,,0.00,,2013-01-20 19:12:00,
2013-01-20 13:22:00,67.0,23.0,30.13,WSW,243,3.0,10.0,19,0.00,,,0.00,,2013-01-20 19:22:00,
2013-01-20 13:33:00,67.0,23.0,30.13,WSW,243,3.0,10.0,19,0.00,,,0.00,,2013-01-20 19:33:00,
2013-01-20 13:43:00,67.0,23.0,30.13,WSW,243,3.0,10.0,19,0.00,,,0.00,,2013-01-20 19:43:00,
2013-01-20 13:53:00,67.0,23.0,30.11,WSW,257,3.0,8.0,19,0.00,,,0.00,,2013-01-20 19:53:00,
2013-01-20 14:03:00,67.0,23.0,30.11,WSW,257,3.0,8.0,19,0.00,,,0.00,,2013-01-20 20:03:00,
2013-01-20 14:12:00,67.0,23.0,30.11,WSW,257,3.0,8.0,19,0.00,,,0.00,,2013-01-20 20:12:00,
2013-01-20 14:22:00,68.0,24.0,30.09,West,261,1.0,10.0,19,0.00,,,0.00,,2013-01-20 20:22:00,
2013-01-20 14:33:00,68.0,24.0,30.09,West,261,1.0,10.0,19,0.00,,,0.00,,2013-01-20 20:33:00,
2013-01-20 14:42:00,68.0,24.0,30.09,West,261,1.0,10.0,19,0.00,,,0.00,,2013-01-20 20:42:00,
2013-01-20 14:53:00,70.0,26.0,30.07,West,278,7.0,16.0,19,0.00,,,0.00,,2013-01-20 20:53:00,
2013-01-20 15:03:00,70.0,26.0,30.07,West,278,7.0,16.0,19,0.00,,,0.00,,2013-01-20 21:03:00,
2013-01-20 15:13:00,70.0,26.0,30.07,West,278,7.0,16.0,19,0.00,,,0.00,,2013-01-20 21:13:00,
2013-01-20 15:23:00,69.0,25.0,30.06,WNW,294,4.0,10.0,19,0.00,,,0.00,,2013-01-20 21:23:00,
2013-01-20 15:33:00,69.0,25.0,30.06,WNW,294,4.0,10.0,19,0.00,,,0.00,,2013-01-20 21:33:00,
2013-01-20 15:43:00,69.0,25.0,30.06,WNW,294,4.0,10.0,19,0.00,,,0.00,,2013-01-20 21:43:00,
2013-01-20 15:53:00,69.0,25.0,30.06,West,278,1.0,11.0,19,0.00,,,0.00,,2013-01-20 21:53:00,
2013-01-20 16:03:00,69.0,25.0,30.06,West,278,1.0,11.0,19,0.00,,,0.00,,2013-01-20 22:03:00,
2013-01-20 16:13:00,69.0,25.0,30.06,West,278,1.0,11.0,19,0.00,,,0.00,,2013-01-20 22:13:00,
2013-01-20 16:22:00,69.0,26.0,30.06,West,272,3.0,13.0,20,0.00,,,0.00,,2013-01-20 22:22:00,
2013-01-20 16:33:00,69.0,26.0,30.06,West,272,3.0,13.0,20,0.00,,,0.00,,2013-01-20 22:33:00,
2013-01-20 16:43:00,69.0,26.0,30.06,West,272,3.0,13.0,20,0.00,,,0.00,,2013-01-20 22:43:00,
2013-01-20 16:53:00,69.0,29.0,30.04,WNW,282,4.0,10.0,22,0.00,,,0.00,,2013-01-20 22:53:00,
2013-01-20 17:03:00,69.0,29.0,30.04,WNW,282,4.0,10.0,22,0.00,,,0.00,,2013-01-20 23:03:00,
2013-01-20 17:13:00,69.0,29.0,30.04,WNW,282,4.0,10.0,22,0.00,,,0.00,,2013-01-20 23:13:00,
2013-01-20 17:23:00,68.0,29.0,30.04,WNW,284,2.0,8.0,23,0.00,,,0.00,,2013-01-20 23:23:00,
2013-01-20 17:33:00,68.0,29.0,30.04,WNW,284,2.0,8.0,23,0.00,,,0.00,,2013-01-20 23:33:00,
2013-01-20 17:43:00,68.0,29.0,30.04,WNW,284,2.0,8.0,23,0.00,,,0.00,,2013-01-20 23:43:00,
2013-01-20 17:53:00,67.0,28.0,30.03,WNW,284,0.0,8.0,23,0.00,,,0.00,,2013-01-20 23:53:00,
2013-01-20 18:03:00,67.0,28.0,30.03,WNW,284,0.0,8.0,23,0.00,,,0.00,,2013-01-21 00:03:00,
2013-01-20 18:13:00,67.0,28.0,30.03,WNW,284,0.0,8.0,23,0.00,,,0.00,,2013-01-21 00:13:00,
2013-01-20 18:22:00,65.0,28.0,30.04,NW,308,0.0,0.0,25,0.00,,,0.00,,2013-01-21 00:22:00,
2013-01-20 18:33:00,65.0,28.0,30.04,NW,308,0.0,0.0,25,0.00,,,0.00,,2013-01-21 00:33:00,
2013-01-20 18:43:00,65.0,28.0,30.04,NW,308,0.0,0.0,25,0.00,,,0.00,,2013-01-21 00:43:00,
2013-01-20 18:53:00,61.0,28.0,30.05,WNW,301,0.0,2.0,28,0.00,,,0.00,,2013-01-21 00:53:00,
2013-01-20 19:03:00,61.0,28.0,30.05,WNW,301,0.0,2.0,28,0.00,,,0.00,,2013-01-21 01:03:00,
2013-01-20 19:13:00,61.0,28.0,30.05,WNW,301,0.0,2.0,28,0.00,,,0.00,,2013-01-21 01:13:00,
2013-01-20 19:23:00,58.0,24.0,30.07,ENE,73,0.0,7.0,27,0.00,,,0.00,,2013-01-21 01:23:00,
2013-01-20 19:33:00,58.0,24.0,30.07,ENE,73,0.0,7.0,27,0.00,,,0.00,,2013-01-21 01:33:00,
2013-01-20 19:43:00,58.0,24.0,30.07,ENE,73,0.0,7.0,27,0.00,,,0.00,,2013-01-21 01:43:00,
2013-01-20 19:53:00,55.0,22.0,30.08,ENE,75,0.0,0.0,27,0.00,,,0.00,,2013-01-21 01:53:00,
2013-01-20 20:00:00,52.0,25.0,30.09,ENE,76,0.0,0.0,35,0.00,,,0.00,,2013-01-21 02:00:00,
2013-01-20 20:03:00,55.0,22.0,30.08,ENE,75,0.0,0.0,27,0.00,,,0.00,,2013-01-21 02:03:00,
2013-01-20 20:12:00,55.0,22.0,30.08,ENE,75,0.0,0.0,27,0.00,,,0.00,,2013-01-21 02:12:00,
2013-01-20 20:23:00,52.0,25.0,30.09,ENE,76,0.0,0.0,35,0.00,,,0.00,,2013-01-21 02:23:00,
2013-01-20 20:33:00,52.0,25.0,30.09,ENE,76,0.0,0.0,35,0.00,,,0.00,,2013-01-21 02:33:00,
2013-01-20 20:43:00,52.0,25.0,30.09,ENE,76,0.0,0.0,35,0.00,,,0.00,,2013-01-21 02:43:00,
2013-01-20 20:53:00,52.0,25.0,30.09,ENE,76,0.0,0.0,35,0.00,,,0.00,,2013-01-21 02:53:00,
2013-01-20 21:23:00,47.0,25.0,30.09,NNE,17,0.0,0.0,41,0.00,,,0.00,,2013-01-21 03:23:00,
2013-01-20 21:33:00,47.0,25.0,30.09,NNE,17,0.0,0.0,41,0.00,,,0.00,,2013-01-21 03:33:00,
2013-01-20 21:43:00,47.0,25.0,30.09,NNE,17,0.0,0.0,41,0.00,,,0.00,,2013-01-21 03:43:00,
2013-01-20 21:53:00,46.0,25.0,30.09,NNE,17,0.0,0.0,43,0.00,,,0.00,,2013-01-21 03:53:00,
2013-01-20 22:03:00,46.0,25.0,30.09,NNE,17,0.0,0.0,43,0.00,,,0.00,,2013-01-21 04:03:00,
2013-01-20 22:12:00,46.0,25.0,30.09,NNE,17,0.0,0.0,43,0.00,,,0.00,,2013-01-21 04:12:00,
2013-01-20 22:23:00,45.0,25.0,30.07,NNE,17,0.0,0.0,46,0.00,,,0.00,,2013-01-21 04:23:00,
2013-01-20 22:32:00,45.0,25.0,30.07,NNE,17,0.0,0.0,46,0.00,,,0.00,,2013-01-21 04:32:00,
2013-01-20 22:43:00,45.0,25.0,30.07,NNE,17,0.0,0.0,46,0.00,,,0.00,,2013-01-21 04:43:00,
2013-01-20 22:53:00,45.0,25.0,30.08,NNE,17,0.0,0.0,46,0.00,,,0.00,,2013-01-21 04:53:00,
2013-01-20 23:03:00,45.0,25.0,30.08,NNE,17,0.0,0.0,46,0.00,,,0.00,,2013-01-21 05:03:00,
2013-01-20 23:12:00,45.0,25.0,30.08,NNE,17,0.0,0.0,46,0.00,,,0.00,,2013-01-21 05:12:00,
2013-01-20 23:22:00,45.0,25.0,30.07,NNE,17,0.0,0.0,45,0.00,,,0.00,,2013-01-21 05:22:00,
2013-01-20 23:33:00,45.0,25.0,30.07,NNE,17,0.0,0.0,45,0.00,,,0.00,,2013-01-21 05:33:00,
2013-01-20 23:42:00,45.0,25.0,30.07,NNE,17,0.0,0.0,45,0.00,,,0.00,,2013-01-21 05:42:00,
2013-01-20 23:53:00,44.0,26.0,30.08,NNE,17,0.0,0.0,49,0.00,,,0.00,,2013-01-21 05:53:00,